Time;durP1;ratioP1;P1;durP2;ratioP2;P2;SDS_P1;SDS_P2;PMS_P1;PMS_P2;Temp;Humidity;BMP_temperature;BMP_pressure;BME280_temperature;BME280_humidity;BME280_pressure;Samples;Min_cycle;Max_cycle;Signal;HPM_P1;HPM_P2
2024/03/26 00:14:39;;;;;;;4.90;2.17;;;;;;;10.58;100.00;98698.13;31560362;28;20117;-71
2024/03/26 00:29:40;;;;;;;4.50;2.30;;;;;;;10.65;100.00;98701.72;31588774;28;20062;-72
2024/03/26 00:44:41;;;;;;;5.77;2.17;;;;;;;10.69;100.00;98705.03;31586055;28;20060;-71
2024/03/26 00:59:42;;;;;;;3.95;2.20;;;;;;;10.59;100.00;98694.19;31549449;28;20383;-71
2024/03/26 01:14:43;;;;;;;4.37;3.00;;;;;;;10.80;100.00;98686.34;31549923;28;20072;-70
2024/03/26 01:29:44;;;;;;;5.10;3.10;;;;;;;10.80;100.00;98678.19;31577513;28;20661;-71
2024/03/26 01:44:45;;;;;;;4.87;2.93;;;;;;;11.27;100.00;98692.00;31541271;28;20056;-71
2024/03/26 01:59:49;;;;;;;3.73;2.57;;;;;;;10.61;100.00;98706.56;31553987;28;20051;-72
2024/03/26 02:14:50;;;;;;;4.40;2.70;;;;;;;10.69;100.00;98724.03;31579500;28;20066;-71
2024/03/26 02:29:51;;;;;;;5.47;3.00;;;;;;;10.85;100.00;98726.47;31571588;28;20056;-72
2024/03/26 02:44:52;;;;;;;9.33;3.30;;;;;;;11.05;100.00;98726.75;31576492;28;20505;-73
2024/03/26 02:59:53;;;;;;;6.70;2.57;;;;;;;10.92;100.00;98731.56;31537242;28;20052;-71
2024/03/26 03:14:54;;;;;;;3.97;2.60;;;;;;;10.78;100.00;98743.03;31552812;28;20063;-72
2024/03/26 03:29:55;;;;;;;4.55;3.08;;;;;;;10.57;100.00;98761.72;31585200;28;20067;-72
2024/03/26 03:44:56;;;;;;;4.83;2.80;;;;;;;10.63;100.00;98769.28;31557686;28;20055;-71
2024/03/26 03:59:57;;;;;;;9.37;3.00;;;;;;;10.55;100.00;98785.84;31563438;28;20048;-73
2024/03/26 04:14:58;;;;;;;6.20;3.10;;;;;;;10.66;97.51;98790.81;31561308;28;20112;-72
2024/03/26 04:29:59;;;;;;;5.90;3.20;;;;;;;10.75;94.06;98792.81;31569876;28;20060;-71
2024/03/26 04:45:01;;;;;;;6.47;3.57;;;;;;;10.85;95.54;98808.66;31573101;28;20463;-72
2024/03/26 05:00:03;;;;;;;8.47;4.83;;;;;;;10.91;97.30;98823.13;31558790;28;20056;-72
2024/03/26 05:15:04;;;;;;;8.57;4.80;;;;;;;10.66;100.00;98849.78;31569162;28;20520;-71
2024/03/26 05:30:06;;;;;;;11.67;5.00;;;;;;;10.81;100.00;98854.19;31555294;28;20052;-72
2024/03/26 05:45:08;;;;;;;14.30;7.03;;;;;;;11.30;100.00;98875.09;31581698;28;20055;-74
2024/03/26 06:00:10;;;;;;;13.83;5.40;;;;;;;11.54;100.00;98910.56;31503386;28;20057;-71
2024/03/26 06:15:11;;;;;;;10.03;4.80;;;;;;;11.88;100.00;98944.84;31509771;28;20421;-73
2024/03/26 06:30:13;;;;;;;10.23;4.77;;;;;;;12.54;100.00;98953.94;31557556;28;20505;-71
2024/03/26 06:45:14;;;;;;;10.60;4.90;;;;;;;13.14;100.00;98969.41;31521001;28;20467;-72
2024/03/26 07:00:15;;;;;;;9.18;4.68;;;;;;;12.93;100.00;98976.63;31558781;28;20501;-72
2024/03/26 07:15:16;;;;;;;9.03;4.57;;;;;;;13.44;100.00;99005.00;31596258;28;20500;-70
2024/03/26 07:30:17;;;;;;;8.40;4.70;;;;;;;13.56;100.00;99017.66;31558044;28;20129;-71
2024/03/26 07:45:18;;;;;;;10.07;4.17;;;;;;;13.79;100.00;99005.22;31593130;28;20165;-72
2024/03/26 08:00:20;;;;;;;8.03;4.23;;;;;;;14.42;100.00;99044.88;31613952;28;20336;-79
2024/03/26 08:15:21;;;;;;;15.77;5.03;;;;;;;14.24;100.00;99064.88;31595334;28;20077;-71
2024/03/26 08:30:22;;;;;;;9.07;4.77;;;;;;;14.26;100.00;99080.78;31573099;28;20048;-72
2024/03/26 08:45:24;;;;;;;9.57;4.07;;;;;;;14.59;100.00;99092.38;31556471;28;20106;-72
2024/03/26 09:00:26;;;;;;;12.80;5.00;;;;;;;14.71;100.00;99112.41;31554016;28;20052;-76
2024/03/26 09:15:27;;;;;;;8.40;4.33;;;;;;;15.16;100.00;99126.84;31556565;28;20052;-78
2024/03/26 09:30:29;;;;;;;10.40;4.50;;;;;;;15.83;100.00;99128.59;31539421;28;20048;-73
2024/03/26 09:45:33;;;;;;;8.47;4.67;;;;;;;15.75;100.00;99143.19;31592340;28;20048;-75
2024/03/26 10:00:37;;;;;;;10.17;5.10;;;;;;;15.24;100.00;99179.91;31548384;28;20044;-82
2024/03/26 10:15:39;;;;;;;9.50;4.20;;;;;;;14.63;100.00;99195.97;31620142;28;20103;-81
2024/03/26 10:30:40;;;;;;;21.67;5.17;;;;;;;14.48;100.00;99195.91;31589072;28;20051;-76
2024/03/26 10:45:42;;;;;;;10.93;4.63;;;;;;;14.90;100.00;99184.03;31578125;28;20049;-81
2024/03/26 11:00:46;;;;;;;6.20;3.87;;;;;;;15.50;100.00;99196.50;31563262;28;20048;-79
2024/03/26 11:15:47;;;;;;;16.10;4.80;;;;;;;15.77;100.00;99201.66;31535676;28;20068;-75
2024/03/26 11:30:48;;;;;;;20.70;4.43;;;;;;;19.93;73.48;99222.00;31590982;28;20045;-81
2024/03/26 11:45:49;;;;;;;29.30;4.90;;;;;;;17.63;80.55;99255.41;31597467;28;20481;-83
2024/03/26 12:00:50;;;;;;;8.37;5.07;;;;;;;15.80;100.00;99263.66;31591337;28;20139;-83
2024/03/26 12:15:51;;;;;;;11.37;6.50;;;;;;;15.23;100.00;99258.44;31624149;28;20047;-82
2024/03/26 12:30:52;;;;;;;13.50;5.70;;;;;;;15.08;100.00;99263.16;31561684;28;20113;-75
2024/03/26 12:45:54;;;;;;;6.63;4.30;;;;;;;14.95;100.00;99270.84;31547128;28;20052;-78
2024/03/26 13:00:55;;;;;;;7.33;3.20;;;;;;;15.24;100.00;99287.28;31555253;28;20055;-76
2024/03/26 13:15:59;;;;;;;4.70;3.10;;;;;;;15.49;100.00;99285.25;31621054;28;20044;-76
2024/03/26 13:31:00;;;;;;;5.67;3.30;;;;;;;15.65;100.00;99290.25;31600216;28;20060;-79
2024/03/26 13:46:01;;;;;;;6.33;4.03;;;;;;;15.58;100.00;99309.81;31556059;28;20078;-74
2024/03/26 14:01:02;;;;;;;7.80;3.90;;;;;;;15.69;100.00;99326.41;31582718;28;20409;-78
2024/03/26 14:16:04;;;;;;;31.57;5.40;;;;;;;15.48;100.00;99339.19;31576944;28;20400;-76
2024/03/26 14:31:05;;;;;;;20.63;5.80;;;;;;;15.26;100.00;99355.19;31572584;28;20064;-77
2024/03/26 14:46:06;;;;;;;12.27;5.03;;;;;;;15.47;100.00;99365.03;31565441;28;20059;-76
2024/03/26 15:01:07;;;;;;;9.00;4.43;;;;;;;15.44;100.00;99381.63;31548350;28;20056;-76
2024/03/26 15:16:08;;;;;;;7.53;4.43;;;;;;;15.24;100.00;99406.84;31540435;28;20052;-78
2024/03/26 15:46:43;;;;;;;7.43;4.40;;;;;;;14.63;100.00;99452.72;31558098;28;20048;-74
2024/03/26 16:01:45;;;;;;;6.73;4.67;;;;;;;14.43;100.00;99463.38;31601310;28;20079;-75
2024/03/26 16:16:46;;;;;;;12.73;5.57;;;;;;;14.19;100.00;99479.63;31583370;28;20041;-73
2024/03/26 16:31:47;;;;;;;13.95;7.63;;;;;;;14.11;100.00;99483.91;31579657;28;20052;-75
2024/03/26 16:46:48;;;;;;;17.67;8.90;;;;;;;14.14;100.00;99502.13;31559558;28;20048;-75
2024/03/26 17:01:49;;;;;;;24.37;12.53;;;;;;;14.09;100.00;99519.09;31566351;28;20060;-75
2024/03/26 17:16:50;;;;;;;24.23;11.30;;;;;;;14.05;100.00;99540.31;31565518;28;20084;-79
2024/03/26 17:31:51;;;;;;;21.07;11.20;;;;;;;14.03;100.00;99553.66;31476202;28;20087;-75
2024/03/26 17:46:54;;;;;;;58.00;32.80;;;;;;;14.02;100.00;99568.50;31444943;28;20059;-72
2024/03/26 18:01:55;;;;;;;13.10;7.47;;;;;;;14.10;100.00;99575.19;31452216;28;20052;-74
2024/03/26 18:16:56;;;;;;;13.80;7.57;;;;;;;14.17;100.00;99594.00;31411924;28;20143;-73
2024/03/26 18:31:57;;;;;;;13.93;7.70;;;;;;;14.06;100.00;99599.16;31473921;28;20447;-72
2024/03/26 18:46:58;;;;;;;11.87;7.63;;;;;;;14.04;100.00;99621.44;31435574;28;20567;-79
2024/03/26 19:01:59;;;;;;;11.83;7.47;;;;;;;13.74;100.00;99653.03;31483664;28;20045;-76
2024/03/26 19:17:00;;;;;;;13.75;7.25;;;;;;;13.74;100.00;99680.31;31531096;28;20078;-78
2024/03/26 19:32:01;;;;;;;11.30;6.85;;;;;;;13.49;100.00;99685.97;31488845;28;20067;-77
2024/03/26 19:47:03;;;;;;;19.20;8.73;;;;;;;13.34;100.00;99713.03;31471502;28;20093;-78
2024/03/26 20:02:03;;;;;;;19.63;9.03;;;;;;;13.28;100.00;99729.19;31481046;28;20041;-77
2024/03/26 20:17:04;;;;;;;19.87;10.57;;;;;;;13.21;100.00;99736.88;31497877;28;20402;-81
2024/03/26 20:32:06;;;;;;;36.40;14.07;;;;;;;13.17;100.00;99749.88;31488713;28;20517;-78
2024/03/26 20:47:07;;;;;;;23.70;12.07;;;;;;;13.00;100.00;99765.59;31469033;28;20056;-79
2024/03/26 21:02:08;;;;;;;25.30;11.57;;;;;;;12.57;100.00;99777.94;31512545;28;20064;-80
2024/03/26 21:17:15;;;;;;;24.67;11.73;;;;;;;12.75;100.00;99782.06;31514371;28;20045;-78
2024/03/26 21:32:16;;;;;;;31.87;15.07;;;;;;;12.33;100.00;99804.00;31373127;28;20048;-79
2024/03/26 21:47:17;;;;;;;30.07;15.20;;;;;;;12.44;100.00;99809.13;31360985;28;20045;-79
2024/03/26 22:02:18;;;;;;;24.90;13.67;;;;;;;12.56;100.00;99825.44;31372912;28;20060;-79
2024/03/26 22:17:19;;;;;;;26.67;12.67;;;;;;;11.85;100.00;99837.72;31336172;28;20053;-76
2024/03/26 22:32:21;;;;;;;23.70;12.77;;;;;;;11.50;100.00;99861.22;31460462;28;20056;-78
2024/03/26 22:47:22;;;;;;;26.73;11.77;;;;;;;11.32;100.00;99866.38;31471558;28;20048;-80
2024/03/26 23:02:23;;;;;;;18.77;9.90;;;;;;;11.31;100.00;99886.59;31487893;28;20131;-78
2024/03/26 23:17:24;;;;;;;23.37;11.63;;;;;;;10.99;100.00;99893.59;31475577;28;20123;-78
2024/03/26 23:32:25;;;;;;;23.90;11.40;;;;;;;10.88;100.00;99909.38;31493936;28;20060;-77
2024/03/26 23:47:27;;;;;;;22.47;10.87;;;;;;;10.54;100.00;99912.50;31479340;28;20048;-76
